Time;durP1;ratioP1;P1;durP2;ratioP2;P2;SDS_P1;SDS_P2;PMS_P1;PMS_P2;Temp;Humidity;BMP_temperature;BMP_pressure;BME280_temperature;BME280_humidity;BME280_pressure;Samples;Min_cycle;Max_cycle;Signal;HPM_P1;HPM_P2
2022/10/05 00:00:17;;;;;;;2.60;2.40;;;;;;;14.03;63.78;95524.72;4977947;28;20201;-77
2022/10/05 00:02:45;;;;;;;3.03;2.53;;;;;;;14.06;63.67;95524.41;4988789;28;20851;-76
2022/10/05 00:05:21;;;;;;;4.50;2.50;;;;;;;14.06;63.82;95532.13;4992948;28;20279;-77
2022/10/05 00:07:48;;;;;;;3.23;2.30;;;;;;;14.07;63.98;95535.50;4991527;28;20627;-77
2022/10/05 00:10:18;;;;;;;3.83;2.60;;;;;;;14.05;63.78;95527.13;4992116;28;20192;-76
2022/10/05 00:12:46;;;;;;;6.50;2.67;;;;;;;14.00;63.84;95521.59;4992073;28;20185;-76
2022/10/05 00:15:15;;;;;;;2.70;2.37;;;;;;;13.99;64.10;95528.50;4992335;28;20593;-77
2022/10/05 00:17:42;;;;;;;3.37;2.50;;;;;;;14.02;63.91;95533.34;4991578;28;20206;-76
2022/10/05 00:20:19;;;;;;;2.77;2.57;;;;;;;14.01;63.94;95528.34;4991617;28;20239;-78
2022/10/05 00:22:46;;;;;;;3.00;2.60;;;;;;;14.00;64.07;95524.16;4976901;28;20693;-78
2022/10/05 00:25:16;;;;;;;4.43;2.50;;;;;;;13.99;64.21;95531.09;4972058;28;20226;-78
2022/10/05 00:27:46;;;;;;;3.80;2.40;;;;;;;13.96;64.15;95528.78;4973112;28;20200;-78
2022/10/05 00:30:15;;;;;;;2.57;2.40;;;;;;;13.98;64.00;95526.88;4988175;28;20186;-78
2022/10/05 00:32:42;;;;;;;2.90;2.63;;;;;;;13.98;64.28;95526.06;4991886;28;20305;-78
2022/10/05 00:35:10;;;;;;;2.63;2.30;;;;;;;13.97;64.14;95520.09;4991630;28;20310;-77
2022/10/05 00:37:39;;;;;;;3.50;2.60;;;;;;;13.94;64.21;95525.50;4991087;28;20201;-77
2022/10/05 00:40:19;;;;;;;3.13;2.67;;;;;;;13.86;64.36;95514.28;4991780;28;20185;-77
2022/10/05 00:42:57;;;;;;;3.80;2.73;;;;;;;13.95;64.30;95521.22;4991541;28;20197;-76
2022/10/05 00:45:29;;;;;;;3.60;2.20;;;;;;;13.93;64.37;95523.09;4991586;28;20251;-78
2022/10/05 00:48:06;;;;;;;3.70;2.30;;;;;;;13.86;64.50;95517.69;4991601;28;20582;-78
2022/10/05 00:50:49;;;;;;;2.30;2.10;;;;;;;13.94;64.57;95535.00;4989825;28;20204;-78
2022/10/05 00:53:31;;;;;;;3.67;2.60;;;;;;;13.90;64.63;95531.06;4991539;28;20189;-77
2022/10/05 00:56:03;;;;;;;4.60;2.67;;;;;;;13.89;64.55;95529.47;4991089;28;20197;-76
2022/10/05 00:58:47;;;;;;;2.40;2.20;;;;;;;13.90;64.54;95533.63;4991544;28;20193;-77
2022/10/05 01:01:17;;;;;;;2.50;2.30;;;;;;;13.89;64.63;95526.88;4991968;28;20204;-77
2022/10/05 01:03:56;;;;;;;3.07;2.67;;;;;;;13.87;64.66;95532.16;4991311;28;20197;-78
2022/10/05 01:06:31;;;;;;;2.73;2.53;;;;;;;13.88;64.62;95544.06;4981364;28;20194;-78
2022/10/05 01:09:09;;;;;;;2.90;2.63;;;;;;;13.86;64.68;95540.00;4971471;28;20568;-78
2022/10/05 01:11:43;;;;;;;2.30;2.10;;;;;;;13.88;64.88;95546.66;4971658;28;20200;-78
2022/10/05 01:14:16;;;;;;;2.40;2.20;;;;;;;13.88;64.60;95551.78;4971316;28;20228;-78
2022/10/05 01:16:50;;;;;;;3.50;2.30;;;;;;;13.87;64.71;95546.78;4971887;28;20197;-78
2022/10/05 01:19:47;;;;;;;3.30;2.43;;;;;;;13.69;64.68;95511.50;4971600;28;20666;-78
2022/10/05 01:22:27;;;;;;;2.40;2.20;;;;;;;13.87;64.65;95554.50;4971611;28;20632;-79
2022/10/05 01:25:11;;;;;;;2.20;2.00;;;;;;;13.85;64.69;95554.63;4971457;28;20197;-78
2022/10/05 01:27:48;;;;;;;3.50;2.20;;;;;;;13.83;64.91;95553.16;4971571;28;20201;-77
2022/10/05 01:30:18;;;;;;;2.87;2.13;;;;;;;13.81;64.86;95555.84;4971439;28;20574;-78
2022/10/05 01:32:53;;;;;;;2.57;2.40;;;;;;;13.85;64.90;95558.97;4972168;28;20190;-78
2022/10/05 01:35:37;;;;;;;2.37;2.20;;;;;;;13.84;65.00;95562.47;4971202;28;20231;-77
2022/10/05 01:38:37;;;;;;;2.37;2.17;;;;;;;13.77;65.06;95565.63;4967576;28;20606;-78
2022/10/05 01:41:13;;;;;;;3.80;2.43;;;;;;;13.80;65.08;95573.03;4951882;29;20198;-77
2022/10/05 01:43:46;;;;;;;2.10;2.00;;;;;;;13.81;65.14;95587.50;4952256;29;20194;-79
2022/10/05 01:46:25;;;;;;;4.80;2.10;;;;;;;13.80;65.13;95582.50;4952075;29;20585;-77
2022/10/05 01:49:10;;;;;;;2.83;2.37;;;;;;;13.79;65.12;95588.59;4957203;28;20202;-77
2022/10/05 01:51:43;;;;;;;3.47;2.73;;;;;;;13.77;65.26;95588.75;4963186;29;20900;-78
2022/10/05 01:54:20;;;;;;;2.33;2.20;;;;;;;13.75;65.23;95589.81;4960737;28;20233;-77
2022/10/05 01:56:57;;;;;;;2.73;2.40;;;;;;;13.75;65.36;95594.97;4954982;28;20201;-78
2022/10/05 01:59:36;;;;;;;2.63;2.43;;;;;;;13.67;65.39;95590.50;4971251;28;20195;-78
2022/10/05 02:02:06;;;;;;;4.77;2.90;;;;;;;13.70;65.29;95600.50;4959201;28;20202;-78
2022/10/05 02:04:40;;;;;;;3.07;2.43;;;;;;;13.66;65.38;95595.78;4952588;29;20289;-78
2022/10/05 02:07:12;;;;;;;2.87;2.67;;;;;;;13.65;65.39;95599.28;4952627;29;20198;-77
2022/10/05 02:09:46;;;;;;;4.37;2.90;;;;;;;13.65;65.16;95605.25;4953051;29;20253;-78
2022/10/05 02:12:17;;;;;;;2.83;2.40;;;;;;;13.61;65.34;95603.06;4952227;29;20225;-77
2022/10/05 02:14:50;;;;;;;2.93;2.63;;;;;;;13.60;65.34;95601.44;4952896;28;20222;-79
2022/10/05 02:17:19;;;;;;;2.97;2.73;;;;;;;13.55;65.20;95596.69;4969951;28;20194;-79
2022/10/05 02:19:51;;;;;;;3.10;2.80;;;;;;;13.55;65.21;95606.97;4977008;28;20198;-78
2022/10/05 02:22:22;;;;;;;3.43;2.73;;;;;;;13.52;65.29;95605.50;4979606;28;20201;-79
2022/10/05 02:24:53;;;;;;;4.20;3.20;;;;;;;13.48;65.60;95609.28;4976094;28;20204;-79
2022/10/05 02:27:25;;;;;;;3.17;2.90;;;;;;;13.47;65.58;95607.66;4976539;28;20193;-78
2022/10/05 02:29:58;;;;;;;7.07;3.10;;;;;;;13.36;65.48;95591.53;4976377;28;20189;-79
2022/10/05 02:32:29;;;;;;;5.33;3.40;;;;;;;13.43;65.67;95611.44;4971354;28;20659;-77
2022/10/05 02:35:01;;;;;;;4.67;2.73;;;;;;;13.38;65.46;95608.44;4956726;29;20736;-79
2022/10/05 02:37:40;;;;;;;3.50;3.20;;;;;;;13.38;65.61;95613.56;4955146;29;20199;-77
2022/10/05 02:40:19;;;;;;;2.90;2.70;;;;;;;13.35;65.61;95606.16;4974339;28;20197;-78
2022/10/05 02:42:56;;;;;;;3.30;3.00;;;;;;;13.33;65.83;95605.44;4974875;28;20205;-78
2022/10/05 02:45:32;;;;;;;4.07;2.97;;;;;;;13.31;65.61;95607.34;4974571;28;20200;-78
2022/10/05 02:48:09;;;;;;;3.30;3.00;;;;;;;13.28;65.97;95607.59;4974387;28;20198;-78
2022/10/05 02:50:47;;;;;;;5.57;3.20;;;;;;;13.25;65.79;95603.53;4974176;28;20197;-78
2022/10/05 02:53:25;;;;;;;5.87;3.10;;;;;;;13.23;65.89;95607.19;4974441;28;20198;-78
2022/10/05 02:56:02;;;;;;;3.67;3.13;;;;;;;13.21;66.05;95593.63;4973809;28;20217;-78
2022/10/05 02:58:37;;;;;;;5.20;3.53;;;;;;;13.17;65.95;95603.38;4974525;28;20193;-78
2022/10/05 03:01:12;;;;;;;5.07;3.73;;;;;;;13.18;66.06;95609.31;4994377;28;20184;-80
2022/10/05 03:03:44;;;;;;;3.80;3.30;;;;;;;13.16;66.13;95612.00;4994728;28;20200;-78
2022/10/05 03:06:17;;;;;;;6.10;3.43;;;;;;;13.08;66.00;95601.56;4993863;28;20211;-76
2022/10/05 03:08:51;;;;;;;6.30;3.37;;;;;;;13.13;66.09;95616.59;4994431;28;20181;-78
2022/10/05 03:11:26;;;;;;;4.97;3.10;;;;;;;13.11;66.13;95618.47;4993156;28;20682;-78
2022/10/05 03:14:02;;;;;;;3.60;3.30;;;;;;;13.07;66.25;95617.91;4993291;28;20185;-77
2022/10/05 03:16:41;;;;;;;3.53;3.23;;;;;;;13.05;66.18;95624.94;4994202;28;20217;-79
2022/10/05 03:19:26;;;;;;;3.83;3.37;;;;;;;13.05;66.27;95623.19;4993724;28;20186;-79
2022/10/05 03:21:58;;;;;;;4.33;3.77;;;;;;;13.03;66.30;95621.69;4993223;28;20683;-78
2022/10/05 03:24:47;;;;;;;5.40;3.33;;;;;;;13.02;66.24;95633.72;4993107;28;20664;-77
2022/10/05 03:27:33;;;;;;;3.50;3.20;;;;;;;13.00;66.45;95629.66;4993364;28;20224;-77
2022/10/05 03:30:05;;;;;;;5.53;3.17;;;;;;;12.90;66.24;95613.38;4976034;28;20197;-77
2022/10/05 03:32:44;;;;;;;5.67;4.10;;;;;;;12.98;66.35;95637.47;4992182;28;20192;-78
2022/10/05 03:35:15;;;;;;;7.47;3.80;;;;;;;12.95;66.45;95635.19;4992865;28;20235;-78
2022/10/05 03:37:52;;;;;;;4.27;3.93;;;;;;;12.95;66.48;95645.47;4992310;28;20208;-77
2022/10/05 03:40:29;;;;;;;4.70;3.70;;;;;;;12.94;66.37;95643.00;4992756;28;20203;-78
2022/10/05 03:43:15;;;;;;;6.10;3.83;;;;;;;12.89;66.49;95642.59;4990180;28;20197;-78
2022/10/05 03:45:49;;;;;;;3.57;3.27;;;;;;;12.88;66.73;95652.03;4973512;28;20200;-77
2022/10/05 03:48:24;;;;;;;5.53;3.83;;;;;;;12.88;66.56;95658.94;4974598;28;20193;-78
2022/10/05 03:51:01;;;;;;;5.57;3.83;;;;;;;12.87;66.93;95665.81;4977710;28;20204;-78
2022/10/05 03:53:35;;;;;;;4.80;3.30;;;;;;;12.86;66.65;95666.75;4973562;28;20649;-77
2022/10/05 03:56:07;;;;;;;6.83;3.40;;;;;;;12.84;66.72;95663.50;4973168;28;20221;-77
2022/10/05 03:58:39;;;;;;;4.73;3.37;;;;;;;12.84;66.79;95671.22;4973036;28;20268;-78
2022/10/05 04:01:10;;;;;;;4.20;3.37;;;;;;;12.83;66.61;95671.34;4978256;28;20193;-76
2022/10/05 04:03:43;;;;;;;4.70;3.17;;;;;;;12.82;66.77;95683.34;4988178;28;20200;-77
2022/10/05 04:06:15;;;;;;;7.40;4.07;;;;;;;12.80;66.78;95678.34;4991477;28;20545;-77
2022/10/05 04:08:47;;;;;;;4.63;3.60;;;;;;;12.80;66.76;95687.81;4993053;28;20280;-79
2022/10/05 04:11:18;;;;;;;3.87;3.47;;;;;;;12.79;66.75;95683.63;4992436;28;20204;-79
2022/10/05 04:13:52;;;;;;;4.37;3.63;;;;;;;12.78;66.66;95682.00;4983784;28;20182;-79
2022/10/05 04:16:26;;;;;;;8.43;3.63;;;;;;;12.77;66.89;95688.03;4972646;28;20224;-79
2022/10/05 04:19:02;;;;;;;6.83;3.80;;;;;;;12.77;66.87;95690.63;4973016;28;20568;-81
2022/10/05 04:21:34;;;;;;;4.43;3.47;;;;;;;12.76;66.81;95689.00;4972897;28;20228;-80
2022/10/05 04:24:16;;;;;;;4.30;3.87;;;;;;;12.73;66.98;95695.19;4986398;28;20664;-81
2022/10/05 04:26:58;;;;;;;3.63;3.23;;;;;;;12.59;66.98;95666.47;4992095;28;20236;-82
2022/10/05 04:29:33;;;;;;;4.00;3.60;;;;;;;12.46;66.94;95651.25;4992417;28;20611;-81
2022/10/05 04:32:27;;;;;;;6.57;3.97;;;;;;;12.66;67.00;95678.69;4992634;28;20187;-80
2022/10/05 04:35:09;;;;;;;3.87;3.57;;;;;;;13.18;100.00;95679.47;4991865;28;20213;-80
2022/10/05 04:37:47;;;;;;;7.80;3.50;;;;;;;13.53;92.65;95686.78;4991722;28;20197;-80
2022/10/05 04:40:27;;;;;;;7.77;3.73;;;;;;;13.65;87.63;95686.69;4992925;28;20193;-81
2022/10/05 04:43:03;;;;;;;5.90;3.63;;;;;;;13.70;84.71;95699.94;4991619;28;20276;-81
2022/10/05 04:45:45;;;;;;;6.37;4.10;;;;;;;13.72;82.28;95710.91;4991522;28;20228;-80
2022/10/05 04:48:29;;;;;;;6.70;4.57;;;;;;;13.70;80.49;95720.53;4992558;28;20351;-80
2022/10/05 04:51:11;;;;;;;9.13;4.70;;;;;;;13.68;79.34;95718.06;4992546;28;20185;-81
2022/10/05 04:53:46;;;;;;;10.83;5.00;;;;;;;13.64;78.23;95721.84;4991806;28;20208;-80
2022/10/05 04:56:19;;;;;;;6.83;4.17;;;;;;;13.65;77.82;95727.81;4991504;28;20224;-82
2022/10/05 04:59:05;;;;;;;8.20;4.63;;;;;;;13.66;77.12;95732.81;4993717;28;20193;-81
2022/10/05 05:01:48;;;;;;;9.50;4.87;;;;;;;13.72;76.57;95718.63;4991278;28;20192;-80
2022/10/05 05:04:36;;;;;;;9.03;4.77;;;;;;;13.83;76.04;95720.28;4991603;28;20190;-83
2022/10/05 05:07:21;;;;;;;8.00;4.37;;;;;;;13.99;74.90;95711.09;4991852;28;20193;-81
2022/10/05 05:10:21;;;;;;;8.43;4.63;;;;;;;14.17;73.94;95708.69;4991558;28;20281;-80
2022/10/05 05:13:02;;;;;;;6.23;4.03;;;;;;;14.31;73.23;95697.19;4912470;29;20191;-79
2022/10/05 05:15:41;;;;;;;8.73;4.63;;;;;;;14.62;72.54;95712.50;4912508;29;20934;-79
2022/10/05 05:18:47;;;;;;;6.93;4.50;;;;;;;14.96;72.61;95710.25;4909945;29;20200;-80
2022/10/05 05:21:31;;;;;;;4.63;3.17;;;;;;;15.47;83.79;95712.41;4854132;29;20201;-80
2022/10/05 05:24:09;;;;;;;5.93;4.73;;;;;;;16.25;91.46;95723.09;4853812;29;20198;-79
2022/10/05 05:26:50;;;;;;;21.23;4.40;;;;;;;16.96;87.53;95713.66;4853400;29;20201;-79
2022/10/05 05:29:24;;;;;;;4.37;3.87;;;;;;;17.61;83.82;95728.72;4852273;29;20246;-78
2022/10/05 05:32:01;;;;;;;24.53;4.03;;;;;;;18.20;80.23;95720.03;4837815;29;20254;-79
2022/10/05 05:34:41;;;;;;;4.87;3.57;;;;;;;18.82;76.99;95721.38;4837561;29;20190;-81
2022/10/05 05:37:19;;;;;;;5.80;3.97;;;;;;;19.47;73.72;95723.84;4837471;29;20618;-79
2022/10/05 05:40:01;;;;;;;5.80;3.17;;;;;;;20.15;70.76;95722.44;4837356;29;20242;-80
2022/10/05 05:42:39;;;;;;;3.87;2.90;;;;;;;20.87;68.03;95722.94;4837725;29;20233;-79
2022/10/05 05:45:16;;;;;;;4.77;3.20;;;;;;;21.53;65.42;95729.13;4837344;29;20202;-81
2022/10/05 05:47:50;;;;;;;4.68;3.08;;;;;;;22.27;62.87;95742.03;4837740;29;20714;-80
2022/10/05 05:50:33;;;;;;;4.53;2.72;;;;;;;22.98;60.93;95734.31;4891196;29;20195;-80
2022/10/05 05:53:07;;;;;;;10.55;3.25;;;;;;;23.62;58.65;95738.56;4913017;29;20191;-79
2022/10/05 05:55:40;;;;;;;9.43;3.58;;;;;;;24.24;57.14;95750.69;4911950;29;20227;-80
2022/10/05 05:58:14;;;;;;;5.70;3.63;;;;;;;24.82;55.31;95739.75;4952271;28;20227;-80
2022/10/05 06:00:45;;;;;;;9.68;3.75;;;;;;;25.43;53.44;95755.25;4975642;28;20591;-80
2022/10/05 06:03:18;;;;;;;12.07;3.95;;;;;;;25.99;52.25;95761.78;4975738;28;20193;-82
2022/10/05 06:05:51;;;;;;;10.40;3.55;;;;;;;26.54;50.96;95756.91;4975334;28;20197;-80
2022/10/05 06:08:26;;;;;;;8.95;3.15;;;;;;;27.11;49.52;95754.31;4975090;28;20204;-81
2022/10/05 06:10:59;;;;;;;8.25;3.70;;;;;;;27.57;48.63;95740.75;4975428;28;20248;-81
2022/10/05 06:13:30;;;;;;;7.07;3.78;;;;;;;28.18;47.28;95760.09;4974980;28;20186;-81
2022/10/05 06:16:04;;;;;;;8.35;3.85;;;;;;;28.66;46.40;95760.06;4975638;28;20264;-81
2022/10/05 06:18:32;;;;;;;7.93;3.25;;;;;;;29.13;44.97;95765.47;4975368;28;20216;-80
2022/10/05 06:21:03;;;;;;;7.80;3.30;;;;;;;29.59;44.31;95765.75;4975132;28;20197;-81
2022/10/05 06:23:37;;;;;;;9.50;3.75;;;;;;;30.09;43.37;95773.88;4974935;28;20204;-82
2022/10/05 06:26:15;;;;;;;10.85;3.70;;;;;;;30.47;42.53;95769.91;4975552;28;20198;-81
2022/10/05 06:28:42;;;;;;;7.68;3.70;;;;;;;30.92;41.87;95782.34;4974779;28;20558;-81
2022/10/05 06:31:23;;;;;;;10.65;4.10;;;;;;;31.30;40.93;95791.41;4975141;28;20626;-80
2022/10/05 06:33:53;;;;;;;11.38;3.80;;;;;;;31.67;40.38;95800.44;4978666;28;20205;-80
2022/10/05 06:36:35;;;;;;;8.75;4.30;;;;;;;32.02;39.78;95799.34;4977867;28;20213;-80
2022/10/05 06:39:35;;;;;;;5.45;4.10;;;;;;;32.34;38.90;95810.06;4982025;28;20256;-81
2022/10/05 06:42:14;;;;;;;8.63;3.65;;;;;;;32.65;38.65;95811.22;4976219;28;20225;-81
2022/10/05 06:44:52;;;;;;;7.32;4.10;;;;;;;32.92;38.12;95818.41;4981454;28;20194;-79
2022/10/05 06:47:26;;;;;;;9.82;4.60;;;;;;;33.15;37.29;95817.25;4975636;28;20201;-81
2022/10/05 06:49:58;;;;;;;8.20;3.90;;;;;;;33.30;36.75;95820.06;4976668;28;20190;-80
2022/10/05 06:52:34;;;;;;;8.10;3.70;;;;;;;33.27;36.57;95788.72;4976243;28;20194;-80
2022/10/05 06:55:15;;;;;;;6.82;3.90;;;;;;;33.69;36.23;95823.28;4976738;28;20193;-80
2022/10/05 06:57:55;;;;;;;5.22;3.60;;;;;;;33.86;35.88;95822.31;4980551;28;20213;-79
2022/10/05 07:00:24;;;;;;;6.95;3.30;;;;;;;34.12;35.53;95828.59;4974735;28;20228;-79
2022/10/05 07:02:58;;;;;;;3.95;2.88;;;;;;;34.33;35.25;95834.78;4975076;28;20221;-80
2022/10/05 07:05:47;;;;;;;4.55;2.90;;;;;;;34.50;35.01;95824.78;4974274;28;20204;-81
2022/10/05 07:08:20;;;;;;;3.55;2.78;;;;;;;34.68;34.77;95821.63;4974191;28;20205;-79
2022/10/05 07:11:04;;;;;;;6.82;3.20;;;;;;;34.90;34.43;95825.94;4973849;28;20697;-80
2022/10/05 07:13:49;;;;;;;4.95;2.38;;;;;;;35.01;34.13;95808.94;4973889;28;20198;-79
2022/10/05 07:16:25;;;;;;;2.40;2.20;;;;;;;35.25;33.92;95816.41;4974290;28;20636;-79
2022/10/05 07:19:04;;;;;;;3.28;1.95;;;;;;;35.36;33.73;95813.47;4974093;28;20231;-80
2022/10/05 07:21:40;;;;;;;2.75;1.83;;;;;;;35.53;33.43;95823.84;4974587;28;20209;-80
2022/10/05 07:24:26;;;;;;;3.20;1.83;;;;;;;35.66;33.24;95827.81;4976131;28;20200;-80
2022/10/05 07:27:07;;;;;;;2.47;1.92;;;;;;;35.77;33.18;95821.44;4977195;28;20252;-80
2022/10/05 07:29:44;;;;;;;3.15;2.13;;;;;;;35.83;33.04;95816.88;4974824;28;20189;-78
2022/10/05 07:32:27;;;;;;;2.75;1.90;;;;;;;35.93;32.65;95815.00;4974125;28;20243;-79
2022/10/05 07:35:01;;;;;;;2.05;1.70;;;;;;;35.96;32.67;95811.00;4974917;28;20196;-80
2022/10/05 07:37:56;;;;;;;2.25;1.75;;;;;;;35.98;32.69;95814.22;4974200;28;20710;-80
2022/10/05 07:40:28;;;;;;;3.15;1.75;;;;;;;35.99;32.39;95813.16;4973502;28;20182;-80
2022/10/05 07:43:02;;;;;;;2.33;2.08;;;;;;;35.99;32.29;95810.47;4973811;28;20638;-80
2022/10/05 07:45:37;;;;;;;4.03;2.25;;;;;;;36.00;32.23;95814.72;4973867;28;20204;-80
2022/10/05 07:48:12;;;;;;;3.40;2.10;;;;;;;35.99;31.81;95823.78;4974094;28;20308;-80
2022/10/05 07:50:47;;;;;;;2.72;1.85;;;;;;;35.97;32.01;95820.63;4976183;28;20204;-80
2022/10/05 07:53:19;;;;;;;2.50;1.73;;;;;;;35.81;31.94;95798.53;4974308;28;20197;-80
2022/10/05 07:55:52;;;;;;;2.50;1.50;;;;;;;35.83;32.15;95815.00;4974049;28;20209;-79
2022/10/05 07:58:27;;;;;;;3.92;1.80;;;;;;;35.75;31.91;95822.75;4984666;28;20669;-80
2022/10/05 08:01:08;;;;;;;3.92;1.90;;;;;;;35.65;32.24;95828.91;4984272;28;20194;-80
2022/10/05 08:03:51;;;;;;;1.60;1.50;;;;;;;35.55;32.21;95839.56;4973730;28;20276;-80
2022/10/05 08:06:33;;;;;;;1.73;1.63;;;;;;;35.39;32.10;95831.56;4973002;28;20565;-79
2022/10/05 08:09:08;;;;;;;1.95;1.70;;;;;;;35.22;32.02;95836.34;4972668;28;20208;-78
2022/10/05 08:11:46;;;;;;;3.38;1.65;;;;;;;35.07;31.88;95837.16;4972656;28;20285;-80
2022/10/05 08:14:16;;;;;;;3.50;1.80;;;;;;;34.93;32.08;95841.34;4973025;28;20192;-79
2022/10/05 08:16:48;;;;;;;1.55;1.45;;;;;;;34.75;32.29;95832.00;4972948;28;20249;-79
2022/10/05 08:19:20;;;;;;;1.98;1.50;;;;;;;34.63;32.41;95837.56;4972337;28;20201;-80
2022/10/05 08:21:52;;;;;;;1.88;1.70;;;;;;;34.45;32.39;95828.16;4973567;28;20194;-79
2022/10/05 08:24:36;;;;;;;1.73;1.63;;;;;;;34.33;32.20;95840.91;4977377;28;20201;-79
2022/10/05 08:27:10;;;;;;;1.70;1.60;;;;;;;34.20;32.46;95838.72;4982436;28;20201;-81
2022/10/05 08:29:42;;;;;;;2.38;1.70;;;;;;;34.06;32.92;95842.88;4988411;28;20224;-80
2022/10/05 08:32:18;;;;;;;3.08;1.95;;;;;;;33.90;32.54;95844.63;4988253;28;20194;-78
2022/10/05 08:34:52;;;;;;;3.47;1.65;;;;;;;33.75;32.60;95840.03;4991437;28;20185;-79
2022/10/05 08:37:21;;;;;;;5.80;1.70;;;;;;;33.59;32.53;95843.63;4992005;28;20229;-79
2022/10/05 08:39:56;;;;;;;3.70;2.20;;;;;;;33.40;32.80;95841.34;4981477;28;20232;-80
2022/10/05 08:42:54;;;;;;;3.72;2.15;;;;;;;33.15;32.46;95839.28;4974719;28;20200;-78
2022/10/05 08:45:54;;;;;;;1.85;1.73;;;;;;;32.83;32.73;95825.19;4975155;28;20201;-78
2022/10/05 08:48:42;;;;;;;2.28;1.95;;;;;;;32.62;33.02;95832.13;4972515;28;20197;-80
2022/10/05 08:51:57;;;;;;;3.17;1.85;;;;;;;32.39;33.03;95831.34;4973705;28;20194;-79
2022/10/05 08:55:02;;;;;;;4.40;1.90;;;;;;;32.07;33.26;95823.22;4954980;28;20205;-80
2022/10/05 08:57:54;;;;;;;2.10;1.90;;;;;;;31.83;33.51;95830.59;4972567;28;20213;-80
2022/10/05 09:00:22;;;;;;;2.10;1.90;;;;;;;31.62;33.71;95829.47;4973064;28;20230;-79
2022/10/05 09:03:22;;;;;;;3.75;1.77;;;;;;;31.35;33.68;95831.97;4972585;28;20205;-80
2022/10/05 09:06:22;;;;;;;2.25;2.08;;;;;;;31.13;33.53;95838.97;4971734;28;20286;-79
2022/10/05 09:09:17;;;;;;;4.68;1.83;;;;;;;30.84;33.66;95838.22;4972028;28;20565;-78
2022/10/05 09:12:01;;;;;;;1.83;1.70;;;;;;;30.56;33.79;95834.50;4971735;28;20197;-79
2022/10/05 09:14:49;;;;;;;4.88;2.25;;;;;;;30.28;34.07;95835.28;4971445;28;20221;-80
2022/10/05 09:17:29;;;;;;;2.15;1.70;;;;;;;30.00;34.17;95828.84;4923657;29;20226;-79
2022/10/05 09:20:10;;;;;;;3.67;2.30;;;;;;;29.77;34.23;95836.81;4931104;29;20191;-78
2022/10/05 09:22:57;;;;;;;2.17;1.88;;;;;;;29.48;34.32;95839.28;4931052;29;20195;-80
2022/10/05 09:25:41;;;;;;;2.47;2.00;;;;;;;29.22;34.21;95840.50;4931106;29;20198;-80
2022/10/05 09:28:22;;;;;;;1.98;1.58;;;;;;;28.96;34.56;95833.81;4930924;28;20602;-79
2022/10/05 09:31:06;;;;;;;5.50;1.92;;;;;;;28.73;34.35;95831.09;4930649;29;20214;-79
2022/10/05 09:34:11;;;;;;;2.90;1.98;;;;;;;28.49;34.41;95830.97;4930807;29;20191;-79
2022/10/05 09:37:24;;;;;;;3.92;1.92;;;;;;;28.24;34.64;95828.44;4928839;29;20618;-80
2022/10/05 09:40:40;;;;;;;2.03;1.80;;;;;;;27.92;34.90;95819.88;4948782;29;20237;-79
2022/10/05 09:43:42;;;;;;;1.77;1.67;;;;;;;27.71;34.62;95834.19;4950320;29;20322;-79
2022/10/05 09:46:46;;;;;;;3.95;1.60;;;;;;;27.49;34.68;95827.75;4892745;29;20215;-79
2022/10/05 09:49:42;;;;;;;3.28;1.63;;;;;;;27.24;35.33;95835.63;4897770;29;20196;-78
2022/10/05 09:52:28;;;;;;;2.10;1.70;;;;;;;27.05;35.36;95834.72;4893427;29;20786;-80
2022/10/05 09:55:33;;;;;;;3.03;1.90;;;;;;;26.86;35.43;95840.91;4919837;29;20305;-80
2022/10/05 09:58:47;;;;;;;2.97;1.90;;;;;;;26.52;35.52;95820.09;4930550;29;20229;-80
2022/10/05 10:01:27;;;;;;;3.42;1.80;;;;;;;26.49;35.14;95832.81;4930473;29;20191;-79
2022/10/05 10:04:14;;;;;;;2.22;1.33;;;;;;;26.34;35.73;95833.06;4930505;29;20831;-79
2022/10/05 10:07:03;;;;;;;1.92;1.63;;;;;;;26.20;35.58;95829.66;4930556;29;20253;-79
2022/10/05 10:09:39;;;;;;;1.92;1.55;;;;;;;26.09;35.86;95834.78;4930440;29;20198;-81
2022/10/05 10:12:37;;;;;;;2.17;1.70;;;;;;;25.96;35.89;95825.94;4930900;29;20198;-79
2022/10/05 10:15:37;;;;;;;2.22;1.73;;;;;;;25.83;36.09;95833.03;4873958;29;20295;-79
2022/10/05 10:18:28;;;;;;;2.75;2.20;;;;;;;25.66;36.17;95824.75;4873732;29;20232;-80
2022/10/05 10:21:07;;;;;;;2.17;1.40;;;;;;;25.61;36.22;95832.44;4873641;29;20212;-79
2022/10/05 10:23:59;;;;;;;2.90;1.67;;;;;;;25.49;36.03;95832.22;4894343;29;20198;-80
2022/10/05 10:27:01;;;;;;;4.78;1.77;;;;;;;25.43;36.33;95827.78;4911288;29;20203;-80
2022/10/05 10:30:02;;;;;;;2.85;1.70;;;;;;;25.32;36.12;95828.41;4911024;29;20203;-79
2022/10/05 10:32:56;;;;;;;3.65;1.52;;;;;;;25.20;36.50;95820.34;4912315;29;20227;-80
2022/10/05 10:35:32;;;;;;;1.63;1.50;;;;;;;25.08;36.36;95811.44;4913451;29;20196;-80
2022/10/05 10:38:13;;;;;;;1.70;1.58;;;;;;;25.06;36.62;95814.25;4910503;29;20232;-78
2022/10/05 10:40:54;;;;;;;1.73;1.40;;;;;;;24.98;36.75;95803.97;4894388;29;20199;-81
2022/10/05 10:43:50;;;;;;;1.88;1.55;;;;;;;24.91;36.73;95801.34;4895837;29;20192;-80
2022/10/05 10:46:30;;;;;;;1.80;1.52;;;;;;;24.66;36.67;95768.94;4914257;29;20211;-80
2022/10/05 10:49:10;;;;;;;2.50;2.15;;;;;;;24.73;36.88;95788.84;4914692;29;20208;-78
2022/10/05 10:52:04;;;;;;;2.15;1.65;;;;;;;24.76;37.17;95795.50;4932717;28;20561;-77
2022/10/05 10:55:05;;;;;;;1.58;1.45;;;;;;;24.60;36.57;95769.72;4973750;28;20194;-81
2022/10/05 10:57:51;;;;;;;2.80;1.73;;;;;;;24.66;36.99;95792.47;4973743;28;20219;-79
2022/10/05 11:00:47;;;;;;;2.75;2.00;;;;;;;24.63;36.87;95793.66;4974643;28;20188;-80
2022/10/05 11:03:58;;;;;;;2.40;1.70;;;;;;;24.55;36.88;95785.19;4895195;29;20196;-80
2022/10/05 11:07:05;;;;;;;2.53;1.88;;;;;;;24.48;37.08;95777.31;4895278;29;20196;-79
2022/10/05 11:10:01;;;;;;;2.55;1.52;;;;;;;24.40;37.21;95777.53;4895452;29;20192;-78
2022/10/05 11:13:08;;;;;;;1.73;1.30;;;;;;;24.34;37.11;95773.03;4895336;29;20579;-79
2022/10/05 11:16:05;;;;;;;3.30;1.60;;;;;;;24.28;37.10;95764.19;4895426;29;20200;-78
2022/10/05 11:18:45;;;;;;;1.92;1.70;;;;;;;24.21;37.34;95758.09;4895025;29;20228;-79
2022/10/05 11:21:35;;;;;;;1.88;1.77;;;;;;;24.19;37.59;95758.31;4895051;29;20207;-79
2022/10/05 11:24:37;;;;;;;2.08;1.48;;;;;;;24.15;37.43;95754.47;4914289;29;20287;-78
2022/10/05 11:27:25;;;;;;;1.95;1.55;;;;;;;24.07;37.31;95754.66;4914217;29;20695;-79
2022/10/05 11:30:42;;;;;;;2.15;1.55;;;;;;;23.95;37.35;95743.13;4913909;29;20207;-79
2022/10/05 11:33:51;;;;;;;2.22;1.73;;;;;;;23.97;37.42;95756.84;4876162;29;20201;-79
2022/10/05 11:36:54;;;;;;;3.92;2.05;;;;;;;23.91;37.52;95749.75;4876111;29;20611;-79
2022/10/05 11:39:43;;;;;;;1.67;1.58;;;;;;;23.85;37.29;95743.50;4896324;29;20236;-79
2022/10/05 11:42:57;;;;;;;5.15;1.58;;;;;;;23.77;37.72;95735.84;4932748;29;20211;-80
2022/10/05 11:45:26;;;;;;;2.28;1.55;;;;;;;23.66;37.56;95723.31;4933020;29;20641;-80
2022/10/05 11:48:29;;;;;;;2.50;1.70;;;;;;;23.68;37.70;95744.84;4935963;29;20199;-80
2022/10/05 11:51:20;;;;;;;3.78;1.67;;;;;;;23.66;37.49;95737.19;4934963;29;20195;-81
2022/10/05 11:53:58;;;;;;;4.25;2.35;;;;;;;23.58;37.46;95733.91;4931925;29;20203;-79
2022/10/05 11:56:31;;;;;;;2.25;1.80;;;;;;;23.55;37.74;95732.47;4932298;29;20601;-80
2022/10/05 11:59:08;;;;;;;3.20;1.90;;;;;;;23.40;37.89;95703.06;4932643;29;20218;-79
2022/10/05 12:01:44;;;;;;;2.00;1.80;;;;;;;23.47;37.72;95711.75;4932002;29;20199;-78
2022/10/05 12:04:17;;;;;;;3.78;2.20;;;;;;;23.47;37.85;95711.75;4932549;29;20746;-78
2022/10/05 12:07:02;;;;;;;2.30;1.90;;;;;;;23.43;37.84;95726.19;4931817;29;20198;-78
2022/10/05 12:12:34;;;;;;;2.25;1.85;;;;;;;23.23;38.27;95695.56;4972027;28;20197;-79
2022/10/05 12:15:13;;;;;;;2.28;1.67;;;;;;;23.27;37.98;95715.06;4972711;28;20198;-78
2022/10/05 12:17:47;;;;;;;2.75;1.83;;;;;;;23.26;37.97;95723.06;4972948;28;20336;-79
2022/10/05 12:20:18;;;;;;;2.28;1.88;;;;;;;23.22;37.82;95721.81;4972746;28;20193;-78
2022/10/05 12:22:53;;;;;;;3.78;2.03;;;;;;;23.18;38.10;95726.63;4972982;28;20576;-79
2022/10/05 12:25:27;;;;;;;2.22;1.60;;;;;;;23.07;38.20;95705.47;4972927;28;20186;-79
2022/10/05 12:27:58;;;;;;;1.63;1.52;;;;;;;23.10;37.97;95725.94;4972789;28;20573;-79
2022/10/05 12:30:33;;;;;;;2.45;1.60;;;;;;;23.07;38.04;95721.94;4972830;28;20189;-78
2022/10/05 12:33:08;;;;;;;4.95;1.73;;;;;;;23.02;38.13;95719.91;4972651;28;20608;-80
2022/10/05 12:35:42;;;;;;;3.72;1.73;;;;;;;22.99;38.04;95716.84;4972527;28;20197;-81
2022/10/05 12:38:17;;;;;;;2.67;1.67;;;;;;;22.94;38.20;95714.81;4976262;28;20233;-79